Time;durP1;ratioP1;P1;durP2;ratioP2;P2;SDS_P1;SDS_P2;PMS_P1;PMS_P2;Temp;Humidity;BMP_temperature;BMP_pressure;BME280_temperature;BME280_humidity;BME280_pressure;Samples;Min_cycle;Max_cycle;Signal;HPM_P1;HPM_P2
2021/08/24 00:00:05;;;;;;;;;;;;;;;18.86;56.17;100066.03;3337684;29;20015;-73
2021/08/24 00:01:53;;;;;;;;;;;;;;;18.84;56.00;100056.53;3337414;29;19925;-74
2021/08/24 00:03:35;;;;;;;;;;;;;;;18.82;55.88;100054.09;3334938;29;19932;-74
2021/08/24 00:05:18;;;;;;;;;;;;;;;18.81;56.34;100048.91;3336228;29;20387;-74
2021/08/24 00:06:59;;;;;;;;;;;;;;;18.78;56.19;100063.72;3328321;29;20472;-74
2021/08/24 00:08:41;;;;;;;;;;;;;;;18.74;56.12;100055.25;3337722;29;19928;-74
2021/08/24 00:10:22;;;;;;;;;;;;;;;18.72;56.20;100057.38;3331974;29;20404;-74
2021/08/24 00:12:03;;;;;;;;;;;;;;;18.70;56.54;100054.09;3329823;29;19958;-74
2021/08/24 00:13:44;;;;;;;;;;;;;;;18.71;56.19;100065.69;3336559;29;19935;-74
2021/08/24 00:15:26;;;;;;;;;;;;;;;18.71;56.15;100060.31;3335487;29;19929;-74
2021/08/24 00:17:07;;;;;;;;;;;;;;;18.72;56.24;100068.16;3337656;29;20326;-74
2021/08/24 00:18:47;;;;;;;;;;;;;;;18.74;56.24;100071.47;3337508;29;19932;-75
2021/08/24 00:20:31;;;;;;;;;;;;;;;18.76;56.00;100067.72;3339852;29;19928;-74
2021/08/24 00:22:11;;;;;;;;;;;;;;;18.79;56.10;100072.63;3339555;29;19972;-75
2021/08/24 00:23:52;;;;;;;;;;;;;;;18.84;56.12;100072.75;3338910;29;19932;-75
2021/08/24 00:25:33;;;;;;;;;;;;;;;18.85;56.02;100069.00;3338123;29;19932;-74
2021/08/24 00:27:19;;;;;;;;;;;;;;;18.86;56.22;100076.03;3338319;29;19936;-74
2021/08/24 00:29:00;;;;;;;;;;;;;;;18.85;56.34;100077.09;3338625;29;19928;-74
2021/08/24 00:30:41;;;;;;;;;;;;;;;18.78;56.09;100071.00;3339241;29;20008;-74
2021/08/24 00:32:21;;;;;;;;;;;;;;;18.73;56.50;100074.38;3333950;29;19929;-74
2021/08/24 00:34:02;;;;;;;;;;;;;;;18.67;56.31;100078.88;3329471;29;20264;-74
2021/08/24 00:35:43;;;;;;;;;;;;;;;18.64;56.19;100076.66;3338765;29;20023;-74
2021/08/24 00:37:23;;;;;;;;;;;;;;;18.63;56.54;100072.28;3339280;29;19928;-73
2021/08/24 00:39:04;;;;;;;;;;;;;;;18.63;56.47;100075.00;3339727;29;19929;-74
2021/08/24 00:40:52;;;;;;;;;;;;;;;18.64;56.49;100076.66;3339954;29;19934;-74
2021/08/24 00:42:32;;;;;;;;;;;;;;;18.65;56.15;100072.06;3338634;29;19928;-73
2021/08/24 00:44:13;;;;;;;;;;;;;;;18.65;55.98;100074.75;3337706;29;19928;-73
2021/08/24 00:45:56;;;;;;;;;;;;;;;18.64;56.27;100071.25;3340075;29;20395;-73
2021/08/24 00:47:38;;;;;;;;;;;;;;;18.67;56.00;100065.38;3339154;29;19981;-73
2021/08/24 00:49:20;;;;;;;;;;;;;;;18.70;56.29;100067.59;3325155;29;19933;-73
2021/08/24 00:51:00;;;;;;;;;;;;;;;18.70;56.42;100075.69;3337548;29;19924;-74
2021/08/24 00:52:41;;;;;;;;;;;;;;;18.71;57.34;100069.22;3340029;29;19928;-73
2021/08/24 00:54:22;;;;;;;;;;;;;;;18.70;56.71;100069.47;3337434;29;19993;-73
2021/08/24 00:56:04;;;;;;;;;;;;;;;18.69;57.21;100067.81;3338659;29;19932;-73
2021/08/24 00:57:45;;;;;;;;;;;;;;;18.68;56.61;100072.41;3339529;29;20308;-75
2021/08/24 00:59:26;;;;;;;;;;;;;;;18.68;57.06;100067.00;3337626;29;20466;-73
2021/08/24 01:01:07;;;;;;;;;;;;;;;18.67;56.89;100068.06;3335677;29;19928;-74
2021/08/24 01:02:47;;;;;;;;;;;;;;;18.63;56.95;100066.88;3334610;29;20019;-74
2021/08/24 01:04:28;;;;;;;;;;;;;;;18.60;56.83;100061.16;3337427;29;19933;-73
2021/08/24 01:06:16;;;;;;;;;;;;;;;18.59;56.51;100063.03;3336698;29;20026;-73
2021/08/24 01:08:30;;;;;;;;;;;;;;;18.61;56.89;100060.09;3327508;29;19929;-73
2021/08/24 01:10:10;;;;;;;;;;;;;;;18.61;56.84;100054.69;3318314;29;19929;-73
2021/08/24 01:12:09;;;;;;;;;;;;;;;18.58;56.76;100060.56;3340307;29;19935;-73
2021/08/24 01:13:53;;;;;;;;;;;;;;;18.58;56.64;100063.28;3339119;29;19935;-73
2021/08/24 01:15:39;;;;;;;;;;;;;;;18.59;56.70;100064.94;3339308;29;20380;-73
2021/08/24 01:17:25;;;;;;;;;;;;;;;18.60;56.84;100061.97;3337985;29;19973;-73
2021/08/24 01:19:18;;;;;;;;;;;;;;;18.59;56.46;100064.94;3334753;29;19928;-74
2021/08/24 01:21:14;;;;;;;;;;;;;;;18.59;56.86;100063.03;3338583;29;19951;-73
2021/08/24 01:22:54;;;;;;;;;;;;;;;18.60;56.80;100061.97;3337422;29;20354;-74
2021/08/24 01:25:04;;;;;;;;;;;;;;;18.61;56.89;100058.22;3339427;29;19937;-74
2021/08/24 01:26:53;;;;;;;;;;;;;;;18.62;56.54;100067.97;3331406;29;20015;-73
2021/08/24 01:28:36;;;;;;;;;;;;;;;18.60;56.94;100058.47;3336960;29;19932;-74
2021/08/24 01:30:19;;;;;;;;;;;;;;;18.55;56.75;100061.88;3332950;29;20014;-74
2021/08/24 01:32:24;;;;;;;;;;;;;;;18.52;57.18;100060.47;3324657;29;19920;-74
2021/08/24 01:34:11;;;;;;;;;;;;;;;18.50;56.88;100056.34;3325589;29;20031;-73
2021/08/24 01:35:55;;;;;;;;;;;;;;;18.47;57.14;100063.06;3336316;29;19984;-74
2021/08/24 01:37:48;;;;;;;;;;;;;;;18.47;57.33;100070.34;3334743;29;20384;-73
2021/08/24 01:39:28;;;;;;;;;;;;;;;18.43;57.18;100064.59;3338300;29;19964;-74
2021/08/24 01:41:17;;;;;;;;;;;;;;;18.41;57.39;100071.28;3339235;29;19985;-74
2021/08/24 01:42:58;;;;;;;;;;;;;;;18.39;57.39;100059.91;3338485;29;19928;-74
2021/08/24 01:44:45;;;;;;;;;;;;;;;18.37;57.44;100060.13;3337700;29;19935;-74
2021/08/24 01:46:37;;;;;;;;;;;;;;;18.33;57.78;100064.38;3323169;29;20347;-73
2021/08/24 01:48:21;;;;;;;;;;;;;;;18.30;57.95;100064.81;3337130;29;19939;-75
2021/08/24 01:50:06;;;;;;;;;;;;;;;18.29;57.31;100058.63;3330571;29;19932;-73
2021/08/24 01:51:48;;;;;;;;;;;;;;;18.31;57.55;100061.91;3338030;29;19985;-74
2021/08/24 01:53:29;;;;;;;;;;;;;;;18.33;57.29;100063.53;3338217;29;19929;-74
2021/08/24 01:55:12;;;;;;;;;;;;;;;18.35;57.47;100056.84;3337587;29;19928;-74
2021/08/24 01:56:53;;;;;;;;;;;;;;;18.40;57.67;100058.84;3337538;29;20384;-74
2021/08/24 01:58:42;;;;;;;;;;;;;;;18.44;57.46;100055.44;3325289;29;19928;-75
2021/08/24 02:00:22;;;;;;;;;;;;;;;18.49;57.54;100052.84;3336445;29;20324;-74
2021/08/24 02:02:25;;;;;;;;;;;;;;;18.50;57.64;100057.19;3335222;29;19928;-74
2021/08/24 02:04:08;;;;;;;;;;;;;;;18.50;57.54;100050.97;3338744;29;19932;-74
2021/08/24 02:05:50;;;;;;;;;;;;;;;18.46;57.38;100052.50;3336341;29;19928;-75
2021/08/24 02:07:31;;;;;;;;;;;;;;;18.42;57.44;100049.44;3326918;29;21082;-74
2021/08/24 02:09:13;;;;;;;;;;;;;;;18.42;57.92;100051.34;3335601;29;19928;-74
2021/08/24 02:10:55;;;;;;;;;;;;;;;18.41;57.64;100050.53;3334938;29;19932;-74
2021/08/24 02:12:37;;;;;;;;;;;;;;;18.41;57.93;100055.09;3337961;29;19935;-74
2021/08/24 02:14:18;;;;;;;;;;;;;;;18.41;58.15;100047.81;3338603;29;19960;-74
2021/08/24 02:15:58;;;;;;;;;;;;;;;18.40;57.77;100056.13;3338335;29;19932;-74
2021/08/24 02:17:39;;;;;;;;;;;;;;;18.38;57.62;100051.00;3335214;29;19932;-75
2021/08/24 02:19:22;;;;;;;;;;;;;;;18.39;58.27;100054.50;3338541;29;19935;-74
2021/08/24 02:21:06;;;;;;;;;;;;;;;18.36;57.86;100055.81;3336001;29;20035;-74
2021/08/24 02:22:47;;;;;;;;;;;;;;;18.35;58.00;100056.03;3335562;29;19936;-73
2021/08/24 02:24:32;;;;;;;;;;;;;;;18.34;57.97;100055.22;3336301;29;20027;-74
2021/08/24 02:26:12;;;;;;;;;;;;;;;18.33;58.13;100050.88;3338023;29;19935;-74
2021/08/24 02:27:54;;;;;;;;;;;;;;;18.33;58.19;100055.44;3335574;29;19932;-73
2021/08/24 02:29:35;;;;;;;;;;;;;;;18.28;58.14;100054.28;3337562;29;19928;-73
2021/08/24 02:31:19;;;;;;;;;;;;;;;18.26;57.95;100052.88;3337158;29;19932;-74
2021/08/24 02:33:00;;;;;;;;;;;;;;;18.26;57.99;100053.69;3338390;29;19997;-74
2021/08/24 02:34:46;;;;;;;;;;;;;;;18.29;58.14;100063.19;3337831;29;20019;-73
2021/08/24 02:36:27;;;;;;;;;;;;;;;18.26;58.02;100053.69;3337232;29;19932;-74
2021/08/24 02:38:10;;;;;;;;;;;;;;;18.23;58.11;100059.56;3334841;29;19985;-75
2021/08/24 02:39:51;;;;;;;;;;;;;;;18.23;58.07;100062.28;3334380;29;20404;-74
2021/08/24 02:41:44;;;;;;;;;;;;;;;18.24;58.05;100053.09;3337315;29;19933;-74
2021/08/24 02:43:35;;;;;;;;;;;;;;;18.28;58.39;100056.97;3337885;29;19928;-74
2021/08/24 02:45:18;;;;;;;;;;;;;;;18.30;58.10;100060.28;3337401;29;19929;-74
2021/08/24 02:46:58;;;;;;;;;;;;;;;18.32;58.19;100062.72;3334325;29;19928;-75
2021/08/24 02:48:39;;;;;;;;;;;;;;;18.34;57.98;100062.50;3333739;29;20009;-74
2021/08/24 02:50:20;;;;;;;;;;;;;;;18.33;58.15;100058.97;3337433;29;19979;-75
2021/08/24 02:52:02;;;;;;;;;;;;;;;18.33;57.80;100060.84;3333599;29;19929;-74
2021/08/24 02:53:48;;;;;;;;;;;;;;;18.32;58.09;100065.41;3334428;29;19983;-75
2021/08/24 02:55:29;;;;;;;;;;;;;;;18.29;57.70;100061.31;3336696;29;19928;-75
2021/08/24 02:57:10;;;;;;;;;;;;;;;18.30;57.66;100062.97;3334352;29;19929;-77
2021/08/24 02:58:51;;;;;;;;;;;;;;;18.33;57.82;100063.53;3336351;29;19935;-76
2021/08/24 03:00:31;;;;;;;;;;;;;;;18.34;57.40;100065.19;3334918;29;19933;-74
2021/08/24 03:02:12;;;;;;;;;;;;;;;18.35;57.65;100062.25;3337388;29;19928;-74
2021/08/24 03:03:53;;;;;;;;;;;;;;;18.39;57.68;100068.00;3337358;29;20080;-75
2021/08/24 03:05:34;;;;;;;;;;;;;;;18.39;57.58;100068.00;3337150;29;20065;-74
2021/08/24 03:07:16;;;;;;;;;;;;;;;18.39;57.35;100062.59;3334512;29;19936;-75
2021/08/24 03:08:56;;;;;;;;;;;;;;;18.42;57.17;100064.81;3335646;29;19936;-74
2021/08/24 03:10:38;;;;;;;;;;;;;;;18.44;57.12;100068.13;3336055;29;20469;-74
2021/08/24 03:12:22;;;;;;;;;;;;;;;18.46;57.42;100068.72;3337266;29;19935;-74
2021/08/24 03:14:04;;;;;;;;;;;;;;;18.47;57.58;100065.75;3338010;29;20545;-74
2021/08/24 03:15:53;;;;;;;;;;;;;;;18.48;57.59;100071.97;3336631;29;20383;-73
2021/08/24 03:17:57;;;;;;;;;;;;;;;18.46;57.50;100079.50;3333420;29;19928;-74
2021/08/24 03:19:38;;;;;;;;;;;;;;;18.42;57.60;100068.34;3333986;29;19932;-74
2021/08/24 03:21:20;;;;;;;;;;;;;;;18.38;57.16;100072.59;3336968;29;19928;-74
2021/08/24 03:23:01;;;;;;;;;;;;;;;18.33;57.22;100075.19;3336148;29;20019;-74
2021/08/24 03:24:41;;;;;;;;;;;;;;;18.29;57.59;100077.50;3337340;29;19928;-74
2021/08/24 03:26:27;;;;;;;;;;;;;;;18.27;57.32;100074.22;3336044;29;20000;-74
2021/08/24 03:28:16;;;;;;;;;;;;;;;18.25;57.81;100083.59;3344239;29;19932;-73
2021/08/24 03:29:58;;;;;;;;;;;;;;;18.22;57.40;100084.88;3339478;29;19932;-73
2021/08/24 03:31:38;;;;;;;;;;;;;;;18.21;57.32;100079.75;3333295;29;20427;-76
2021/08/24 03:33:19;;;;;;;;;;;;;;;18.20;57.28;100076.22;3324442;29;19929;-73
2021/08/24 03:35:00;;;;;;;;;;;;;;;18.23;57.17;100080.34;3331357;29;19929;-73
2021/08/24 03:36:40;;;;;;;;;;;;;;;18.26;57.12;100085.25;3336794;29;20335;-75
2021/08/24 03:38:21;;;;;;;;;;;;;;;18.28;57.47;100080.47;3333374;29;19982;-75
2021/08/24 03:40:03;;;;;;;;;;;;;;;18.29;57.53;100080.19;3336941;29;19935;-75
2021/08/24 03:41:43;;;;;;;;;;;;;;;18.31;57.08;100079.97;3337935;29;19936;-75
2021/08/24 03:43:24;;;;;;;;;;;;;;;18.29;57.16;100077.50;3337680;29;20308;-75
2021/08/24 03:45:06;;;;;;;;;;;;;;;18.29;57.35;100090.19;3337363;29;19929;-75
2021/08/24 03:46:46;;;;;;;;;;;;;;;18.30;57.14;100089.97;3337071;29;20315;-75
2021/08/24 03:48:27;;;;;;;;;;;;;;;18.31;57.19;100094.28;3335381;29;20031;-75
2021/08/24 03:50:08;;;;;;;;;;;;;;;18.35;57.34;100091.13;3337597;29;20434;-74
2021/08/24 03:51:48;;;;;;;;;;;;;;;18.35;57.19;100086.53;3337450;29;20006;-74
2021/08/24 03:53:29;;;;;;;;;;;;;;;18.35;57.30;100091.94;3336920;29;20357;-75
2021/08/24 03:55:10;;;;;;;;;;;;;;;18.37;57.58;100091.69;3337474;29;19933;-73
2021/08/24 03:56:50;;;;;;;;;;;;;;;18.35;57.51;100094.63;3336329;29;19935;-73
2021/08/24 03:58:31;;;;;;;;;;;;;;;18.34;57.29;100097.56;3333340;29;19935;-73
2021/08/24 04:00:14;;;;;;;;;;;;;;;18.31;57.52;100094.28;3336801;29;19929;-73
2021/08/24 04:01:55;;;;;;;;;;;;;;;18.34;57.14;100097.56;3335833;29;19928;-73
2021/08/24 04:03:35;;;;;;;;;;;;;;;18.40;57.13;100093.94;3336529;29;19935;-74
2021/08/24 04:05:16;;;;;;;;;;;;;;;18.48;56.92;100098.97;3337564;29;20493;-75
2021/08/24 04:06:56;;;;;;;;;;;;;;;18.55;57.00;100094.25;3337630;29;20482;-74
2021/08/24 04:08:37;;;;;;;;;;;;;;;18.61;57.09;100092.50;3334125;29;19928;-74
2021/08/24 04:10:18;;;;;;;;;;;;;;;18.65;56.88;100091.78;3335756;29;19985;-74
2021/08/24 04:11:58;;;;;;;;;;;;;;;18.68;57.08;100104.81;3335260;29;19954;-74
2021/08/24 04:13:39;;;;;;;;;;;;;;;18.73;56.95;100096.81;3335995;29;19988;-74
2021/08/24 04:15:19;;;;;;;;;;;;;;;18.81;56.79;100097.53;3337307;29;19985;-74
2021/08/24 04:17:00;;;;;;;;;;;;;;;18.88;56.31;100107.13;3335833;29;20254;-73
2021/08/24 04:18:41;;;;;;;;;;;;;;;18.95;56.19;100105.13;3335478;29;19935;-73
2021/08/24 04:20:22;;;;;;;;;;;;;;;19.04;56.34;100108.25;3334224;29;19935;-73
2021/08/24 04:22:10;;;;;;;;;;;;;;;19.05;56.16;100104.53;3336612;29;19932;-74
2021/08/24 04:23:50;;;;;;;;;;;;;;;19.05;56.11;100104.53;3335565;29;19936;-73
2021/08/24 04:25:32;;;;;;;;;;;;;;;19.04;56.13;100108.25;3337663;29;19960;-72
2021/08/24 04:27:13;;;;;;;;;;;;;;;19.02;55.87;100104.97;3336436;29;19928;-75
2021/08/24 04:28:54;;;;;;;;;;;;;;;19.03;55.94;100101.22;3336048;29;19929;-75
2021/08/24 04:30:35;;;;;;;;;;;;;;;19.06;56.24;100100.75;3335064;29;20388;-73
2021/08/24 04:32:17;;;;;;;;;;;;;;;19.13;55.98;100106.84;3335776;29;20392;-74
2021/08/24 04:33:58;;;;;;;;;;;;;;;19.20;55.73;100105.88;3335742;29;19929;-75
2021/08/24 04:35:38;;;;;;;;;;;;;;;19.23;55.90;100114.28;3335338;29;20422;-73
2021/08/24 04:37:19;;;;;;;;;;;;;;;19.27;55.78;100103.84;3332949;29;19924;-74
2021/08/24 04:39:00;;;;;;;;;;;;;;;19.33;55.64;100105.56;3335323;29;20412;-74
2021/08/24 04:40:40;;;;;;;;;;;;;;;19.38;55.50;100105.66;3332746;29;19939;-75
2021/08/24 04:42:21;;;;;;;;;;;;;;;19.45;55.28;100103.63;3337293;29;19975;-75
2021/08/24 04:44:02;;;;;;;;;;;;;;;19.53;55.14;100099.72;3338087;29;19925;-75
2021/08/24 04:45:42;;;;;;;;;;;;;;;19.61;55.41;100104.72;3336836;29;20062;-75
2021/08/24 04:47:23;;;;;;;;;;;;;;;19.66;54.90;100102.09;3335324;29;20023;-75
2021/08/24 04:49:03;;;;;;;;;;;;;;;19.68;55.07;100101.91;3336941;29;20434;-75
2021/08/24 04:50:44;;;;;;;;;;;;;;;19.72;54.70;100097.63;3329567;29;20419;-75
2021/08/24 04:52:24;;;;;;;;;;;;;;;19.78;54.58;100096.66;3324678;29;19940;-74
2021/08/24 04:54:05;;;;;;;;;;;;;;;19.81;54.53;100102.41;3334080;29;19950;-75
2021/08/24 04:55:45;;;;;;;;;;;;;;;19.85;54.82;100097.31;3338412;29;19929;-74
2021/08/24 04:57:26;;;;;;;;;;;;;;;19.87;54.42;100095.19;3339644;29;19977;-74
2021/08/24 04:59:06;;;;;;;;;;;;;;;19.92;54.38;100103.38;3339485;29;19928;-75
2021/08/24 05:00:47;;;;;;;;;;;;;;;19.94;54.14;100101.25;3337302;29;19944;-73
2021/08/24 05:02:27;;;;;;;;;;;;;;;19.95;54.38;100104.78;3339036;29;19936;-74
2021/08/24 05:04:08;;;;;;;;;;;;;;;19.93;54.12;100099.63;3340639;29;19994;-74
2021/08/24 05:05:49;;;;;;;;;;;;;;;19.95;54.16;100108.28;3339219;29;19928;-74
2021/08/24 05:07:29;;;;;;;;;;;;;;;19.95;54.03;100102.88;3341047;29;19928;-74
2021/08/24 05:09:10;;;;;;;;;;;;;;;19.97;54.24;100111.59;3342590;29;19920;-75
2021/08/24 05:10:52;;;;;;;;;;;;;;;20.02;53.96;100106.25;3338433;29;19963;-75
2021/08/24 05:12:33;;;;;;;;;;;;;;;20.10;54.17;100101.50;3335519;29;19928;-75
2021/08/24 05:14:13;;;;;;;;;;;;;;;20.16;53.71;100097.78;3336134;29;20384;-75
2021/08/24 05:15:54;;;;;;;;;;;;;;;20.20;53.87;100099.75;3339114;29;19970;-74
2021/08/24 05:17:34;;;;;;;;;;;;;;;20.29;53.64;100096.63;3338213;29;20396;-74
2021/08/24 05:19:15;;;;;;;;;;;;;;;20.36;53.50;100091.88;3339306;29;20023;-77
2021/08/24 05:21:04;;;;;;;;;;;;;;;20.40;53.66;100088.41;3334080;29;19928;-74
2021/08/24 05:22:45;;;;;;;;;;;;;;;20.50;53.29;100090.44;3332740;29;19993;-73
2021/08/24 05:24:26;;;;;;;;;;;;;;;20.62;53.50;100096.56;3331981;29;19935;-74
2021/08/24 05:26:08;;;;;;;;;;;;;;;20.76;53.25;100091.63;3333205;29;19971;-73
2021/08/24 05:27:48;;;;;;;;;;;;;;;20.87;53.08;100082.53;3336100;29;19928;-72
2021/08/24 05:29:29;;;;;;;;;;;;;;;21.01;52.82;100082.97;3339077;29;19935;-72
2021/08/24 05:31:10;;;;;;;;;;;;;;;21.16;52.77;100087.75;3339413;29;20303;-72
2021/08/24 05:32:51;;;;;;;;;;;;;;;21.29;52.71;100087.34;3333093;29;19956;-72
2021/08/24 05:34:32;;;;;;;;;;;;;;;21.38;52.27;100084.19;3326708;29;19933;-72
2021/08/24 05:36:13;;;;;;;;;;;;;;;21.45;52.09;100087.50;3331077;29;19932;-73
2021/08/24 05:37:54;;;;;;;;;;;;;;;21.53;52.16;100087.06;3338599;29;20020;-73
2021/08/24 05:39:35;;;;;;;;;;;;;;;21.63;52.06;100083.63;3350050;29;19933;-73
2021/08/24 05:41:16;;;;;;;;;;;;;;;21.67;51.90;100085.56;3349835;29;20391;-73
2021/08/24 05:42:58;;;;;;;;;;;;;;;21.70;52.12;100087.75;3339874;29;20027;-72
2021/08/24 05:44:40;;;;;;;;;;;;;;;21.78;52.01;100081.84;3345185;29;19935;-73
2021/08/24 05:46:21;;;;;;;;;;;;;;;21.86;51.91;100087.88;3338406;29;20022;-73
2021/08/24 05:48:01;;;;;;;;;;;;;;;21.96;52.34;100074.38;3338598;29;19928;-71
2021/08/24 05:49:43;;;;;;;;;;;;;;;22.10;51.94;100077.50;3338188;29;19954;-72
2021/08/24 05:51:24;;;;;;;;;;;;;;;22.21;51.81;100079.22;3337979;29;19935;-73
2021/08/24 05:53:04;;;;;;;;;;;;;;;22.29;52.04;100076.00;3338073;29;20403;-72
2021/08/24 05:54:47;;;;;;;;;;;;;;;22.33;52.14;100087.97;3341488;29;20019;-73
2021/08/24 05:56:29;;;;;;;;;;;;;;;22.33;52.30;100077.13;3334108;29;19970;-73
2021/08/24 05:58:09;;;;;;;;;;;;;;;22.30;52.07;100082.25;3341042;29;19935;-73
2021/08/24 05:59:51;;;;;;;;;;;;;;;22.19;51.87;100079.47;3337464;29;20079;-72
2021/08/24 06:01:32;;;;;;;;;;;;;;;22.11;51.90;100082.63;3337568;29;19936;-73
2021/08/24 06:03:12;;;;;;;;;;;;;;;;;;3337272;29;20366;-74
2021/08/24 06:04:55;;;;;;;;;;;;;;;21.95;51.71;100081.72;3337661;29;19933;-74
2021/08/24 06:06:37;;;;;;;;;;;;;;;21.89;52.04;100079.22;3337135;29;19929;-73
2021/08/24 06:08:18;;;;;;;;;;;;;;;21.88;51.97;100085.72;3337635;29;19932;-72
2021/08/24 06:10:01;;;;;;;;;;;;;;;21.87;51.87;100076.78;3337243;29;19936;-72
2021/08/24 06:11:47;;;;;;;;;;;;;;;21.88;52.13;100083.00;3337912;29;19928;-71
2021/08/24 06:13:29;;;;;;;;;;;;;;;21.91;52.33;100082.50;3337521;29;19932;-72
2021/08/24 06:15:10;;;;;;;;;;;;;;;22.00;52.18;100079.03;3338129;29;19935;-70
2021/08/24 06:16:56;;;;;;;;;;;;;;;22.20;51.66;100077.56;3338502;29;20388;-71
2021/08/24 06:18:38;;;;;;;;;;;;;;;22.45;51.11;100078.81;3338259;29;20018;-71
2021/08/24 06:20:19;;;;;;;;;;;;;;;22.72;50.95;100082.19;3338670;29;19963;-71
2021/08/24 06:22:00;;;;;;;;;;;;;;;23.05;50.56;100086.44;3338737;29;20404;-72
2021/08/24 06:23:41;;;;;;;;;;;;;;;23.35;50.04;100087.56;3337761;29;20018;-72
2021/08/24 06:25:22;;;;;;;;;;;;;;;23.61;49.78;100082.16;3338297;29;19933;-72
2021/08/24 06:27:04;;;;;;;;;;;;;;;23.87;49.06;100080.28;3338687;29;19928;-72
2021/08/24 06:28:45;;;;;;;;;;;;;;;24.10;48.81;100085.16;3338582;29;19935;-72
2021/08/24 06:30:25;;;;;;;;;;;;;;;24.33;48.44;100093.84;3338307;29;19976;-72
2021/08/24 06:32:06;;;;;;;;;;;;;;;24.48;47.43;100084.84;3338538;29;19967;-71
2021/08/24 06:33:47;;;;;;;;;;;;;;;24.58;47.24;100093.00;3338491;29;19956;-71
2021/08/24 06:35:29;;;;;;;;;;;;;;;24.66;46.62;100088.88;3338453;29;19932;-72
2021/08/24 06:37:10;;;;;;;;;;;;;;;24.75;46.81;100088.00;3338269;29;19928;-71
2021/08/24 06:38:51;;;;;;;;;;;;;;;24.87;46.04;100089.63;3338054;29;20028;-72
2021/08/24 06:40:32;;;;;;;;;;;;;;;24.95;45.63;100086.31;3338516;29;19935;-72
2021/08/24 06:42:13;;;;;;;;;;;;;;;25.06;45.46;100087.88;3338549;29;20034;-73
2021/08/24 06:43:53;;;;;;;;;;;;;;;25.16;45.10;100087.84;3338182;29;20310;-72
2021/08/24 06:45:34;;;;;;;;;;;;;;;25.28;44.56;100079.31;3338396;29;20304;-72
2021/08/24 06:47:14;;;;;;;;;;;;;;;25.42;44.26;100091.22;3337285;29;20444;-72
2021/08/24 06:48:55;;;;;;;;;;;;;;;25.54;44.10;100082.69;3337907;29;19993;-72
2021/08/24 06:50:36;;;;;;;;;;;;;;;25.66;44.26;100091.34;3338728;29;19936;-72
2021/08/24 06:52:17;;;;;;;;;;;;;;;25.76;43.73;100097.81;3338026;29;20034;-73
2021/08/24 06:53:57;;;;;;;;;;;;;;;25.86;43.14;100092.28;3338016;29;20032;-72
2021/08/24 06:55:38;;;;;;;;;;;;;;;25.98;43.06;100092.75;3337320;29;19928;-72
2021/08/24 06:57:19;;;;;;;;;;;;;;;26.15;42.60;100088.75;3337948;29;19985;-72
2021/08/24 06:59:01;;;;;;;;;;;;;;;26.29;42.09;100085.06;3338205;29;20024;-70
2021/08/24 07:00:44;;;;;;;;;;;;;;;26.47;42.12;100088.16;3337224;29;19928;-71
2021/08/24 07:02:24;;;;;;;;;;;;;;;26.63;41.66;100086.06;3337663;29;20282;-70
2021/08/24 07:04:05;;;;;;;;;;;;;;;26.75;41.80;100084.56;3338092;29;19936;-70
2021/08/24 07:05:46;;;;;;;;;;;;;;;26.84;40.99;100092.09;3337869;29;19946;-71
2021/08/24 07:07:27;;;;;;;;;;;;;;;26.95;41.01;100088.97;3338178;29;19952;-72
2021/08/24 07:09:07;;;;;;;;;;;;;;;27.07;40.94;100080.31;3338152;29;19928;-72
2021/08/24 07:10:48;;;;;;;;;;;;;;;27.18;39.94;100079.09;3337766;29;19972;-72
2021/08/24 07:12:29;;;;;;;;;;;;;;;27.29;40.63;100082.50;3338022;29;19935;-72
2021/08/24 07:14:10;;;;;;;;;;;;;;;27.36;39.98;100082.94;3337867;29;20289;-72
2021/08/24 07:15:51;;;;;;;;;;;;;;;27.45;39.51;100080.34;3337828;29;20035;-71
2021/08/24 07:17:31;;;;;;;;;;;;;;;27.53;39.68;100087.88;3337868;29;19928;-72
2021/08/24 07:19:12;;;;;;;;;;;;;;;27.59;38.91;100085.84;3337827;29;19928;-71
2021/08/24 07:20:53;;;;;;;;;;;;;;;27.67;39.18;100085.19;3337861;29;20011;-72
2021/08/24 07:22:33;;;;;;;;;;;;;;;27.82;39.01;100084.94;3337932;29;19929;-72
2021/08/24 07:24:14;;;;;;;;;;;;;;;27.92;38.59;100083.97;3337832;29;19928;-72
2021/08/24 07:25:54;;;;;;;;;;;;;;;27.93;38.85;100090.25;3337991;29;19991;-72
2021/08/24 07:27:35;;;;;;;;;;;;;;;27.93;38.39;100090.25;3336902;29;19971;-72
2021/08/24 07:29:15;;;;;;;;;;;;;;;27.89;37.70;100087.31;3337689;29;19934;-72
2021/08/24 07:30:56;;;;;;;;;;;;;;;27.82;37.18;100084.16;3337966;29;19928;-71
2021/08/24 07:32:36;;;;;;;;;;;;;;;27.88;37.71;100085.69;3337775;29;19928;-70
2021/08/24 07:34:17;;;;;;;;;;;;;;;28.10;37.03;100090.50;3337666;29;20411;-71
2021/08/24 07:35:58;;;;;;;;;;;;;;;28.39;37.14;100082.00;3336906;29;20469;-71
2021/08/24 07:37:38;;;;;;;;;;;;;;;28.62;36.66;100096.66;3337422;29;19928;-70
2021/08/24 07:39:19;;;;;;;;;;;;;;;28.59;35.45;100094.53;3337515;29;20064;-72
2021/08/24 07:40:59;;;;;;;;;;;;;;;28.45;35.74;100091.00;3337847;29;19943;-73
2021/08/24 07:42:40;;;;;;;;;;;;;;;28.18;36.39;100086.25;3337752;29;19928;-70
2021/08/24 07:44:24;;;;;;;;;;;;;;;27.90;36.12;100085.38;3336364;29;20033;-72
2021/08/24 07:46:05;;;;;;;;;;;;;;;27.75;37.12;100095.47;3336556;29;19928;-72
2021/08/24 07:47:46;;;;;;;;;;;;;;;27.53;36.45;100098.00;3336157;29;19935;-73
2021/08/24 07:49:26;;;;;;;;;;;;;;;27.30;37.09;100094.25;3337599;29;19928;-73
2021/08/24 07:51:07;;;;;;;;;;;;;;;27.07;36.79;100095.91;3337703;29;20392;-71
2021/08/24 07:52:51;;;;;;;;;;;;;;;26.81;37.10;100092.69;3337630;29;20714;-73
2021/08/24 07:54:32;;;;;;;;;;;;;;;26.59;37.51;100093.22;3336498;29;19936;-72
2021/08/24 07:56:12;;;;;;;;;;;;;;;26.61;37.95;100094.56;3337460;29;19976;-71
2021/08/24 07:57:53;;;;;;;;;;;;;;;26.74;37.91;100096.63;3336592;29;20006;-72
2021/08/24 07:59:33;;;;;;;;;;;;;;;26.82;37.61;100091.59;3337264;29;19932;-72
2021/08/24 08:01:14;;;;;;;;;;;;;;;26.76;37.46;100091.66;3337860;29;19985;-71
2021/08/24 08:02:55;;;;;;;;;;;;;;;26.66;37.31;100090.97;3337241;29;19936;-71
2021/08/24 08:04:35;;;;;;;;;;;;;;;26.59;37.30;100085.84;3337473;29;19935;-72
2021/08/24 08:06:16;;;;;;;;;;;;;;;26.68;37.68;100081.34;3336379;29;19928;-70
2021/08/24 08:07:56;;;;;;;;;;;;;;;26.72;37.39;100079.69;3333993;29;19928;-72
2021/08/24 08:09:37;;;;;;;;;;;;;;;26.69;37.04;100084.91;3337506;29;19928;-72
2021/08/24 08:11:17;;;;;;;;;;;;;;;26.58;37.61;100083.41;3337551;29;19929;-72
2021/08/24 08:12:58;;;;;;;;;;;;;;;26.47;37.14;100077.22;3337688;29;19928;-73
2021/08/24 08:14:38;;;;;;;;;;;;;;;26.54;36.61;100078.53;3337592;29;19928;-71
2021/08/24 08:16:19;;;;;;;;;;;;;;;26.57;37.37;100070.84;3337509;29;20031;-72
2021/08/24 08:18:04;;;;;;;;;;;;;;;26.57;36.91;100070.84;3337768;29;19936;-71
2021/08/24 08:19:44;;;;;;;;;;;;;;;26.51;37.16;100070.88;3337548;29;19985;-71
2021/08/24 08:21:25;;;;;;;;;;;;;;;26.50;37.05;100074.69;3337309;29;19932;-72
2021/08/24 08:23:07;;;;;;;;;;;;;;;26.52;37.32;100069.00;3337578;29;19935;-72
2021/08/24 08:24:48;;;;;;;;;;;;;;;26.51;36.94;100072.78;3337344;29;20428;-72
2021/08/24 08:26:28;;;;;;;;;;;;;;;26.41;37.19;100073.72;3337718;29;19985;-72
2021/08/24 08:28:09;;;;;;;;;;;;;;;26.33;37.25;100068.88;3337295;29;19944;-71
2021/08/24 08:29:50;;;;;;;;;;;;;;;26.32;37.52;100067.25;3336180;29;19929;-72
2021/08/24 08:31:31;;;;;;;;;;;;;;;26.30;37.24;100064.81;3337073;29;19932;-72
2021/08/24 08:33:12;;;;;;;;;;;;;;;26.33;37.35;100071.59;3337477;29;19971;-73
2021/08/24 08:34:55;;;;;;;;;;;;;;;26.32;37.37;100070.00;3337501;29;19929;-71
2021/08/24 08:36:35;;;;;;;;;;;;;;;26.24;37.73;100065.97;3337508;29;19948;-72
2021/08/24 08:38:16;;;;;;;;;;;;;;;26.20;37.75;100067.66;3337531;29;19993;-71
2021/08/24 08:39:56;;;;;;;;;;;;;;;26.17;38.01;100059.22;3339853;29;19928;-73
2021/08/24 08:41:43;;;;;;;;;;;;;;;26.16;37.78;100054.88;3340246;29;19935;-72
2021/08/24 08:43:32;;;;;;;;;;;;;;;26.26;37.80;100052.84;3339739;29;20308;-72
2021/08/24 08:45:14;;;;;;;;;;;;;;;26.30;37.82;100061.25;3340033;29;19935;-71